createdAt,value
2017-01-27T00:00:29.489Z,-3.1
2017-01-27T00:01:35.661Z,-3.08
2017-01-27T00:02:41.827Z,-3.11
2017-01-27T00:03:47.994Z,-3.08
2017-01-27T00:04:54.168Z,-3.02
2017-01-27T00:05:58.375Z,-3.02
2017-01-27T00:07:04.560Z,-3.08
2017-01-27T00:08:09.786Z,-3.05
2017-01-27T00:09:13.020Z,-2.97
2017-01-27T00:10:18.220Z,-3.07
2017-01-27T00:11:23.443Z,-3.02
2017-01-27T00:12:29.600Z,-3.04
2017-01-27T00:13:34.842Z,-3.05
2017-01-27T00:14:39.994Z,-3.02
2017-01-27T00:15:46.182Z,-3.02
2017-01-27T00:16:52.315Z,-3.08
2017-01-27T00:17:56.512Z,-3.05
2017-01-27T00:19:02.689Z,-3.05
2017-01-27T00:20:07.880Z,-3.05
2017-01-27T00:21:14.051Z,-3.04
2017-01-27T00:22:19.260Z,-3.08
2017-01-27T00:23:25.420Z,-3.02
2017-01-27T00:24:30.639Z,-3.02
2017-01-27T00:25:36.834Z,-3.02
2017-01-27T00:26:42.953Z,-3
2017-01-27T00:27:47.176Z,-3
2017-01-27T00:28:52.453Z,-2.93
2017-01-27T00:29:56.711Z,-2.94
2017-01-27T00:31:00.882Z,-2.9
2017-01-27T00:32:05.144Z,-2.92
2017-01-27T00:33:10.331Z,-2.94
2017-01-27T00:34:16.499Z,-2.93
2017-01-27T00:35:21.771Z,-2.99
2017-01-27T00:36:26.936Z,-3.05
2017-01-27T00:37:30.175Z,-3.08
2017-01-27T00:38:36.376Z,-3.05
2017-01-27T00:39:41.536Z,-3.11
2017-01-27T00:40:46.731Z,-3.11
2017-01-27T00:41:51.920Z,-3.05
2017-01-27T00:42:56.145Z,-3.04
2017-01-27T00:44:00.346Z,-2.92
2017-01-27T00:45:06.613Z,-3
2017-01-27T00:46:11.813Z,-3.08
2017-01-27T00:47:16.009Z,-2.9
2017-01-27T00:48:22.185Z,-2.92
2017-01-27T00:49:26.393Z,-2.99
2017-01-27T00:50:32.562Z,-2.89
2017-01-27T00:51:38.753Z,-2.93
2017-01-27T00:52:43.952Z,-2.9
2017-01-27T00:53:49.130Z,-2.93
2017-01-27T00:54:55.275Z,-3.07
2017-01-27T00:56:00.487Z,-3.02
2017-01-27T00:57:05.682Z,-3.08
2017-01-27T00:58:11.841Z,-3.04
2017-01-27T00:59:18.011Z,-3
2017-01-27T01:00:23.208Z,-3.1
2017-01-27T01:01:29.366Z,-3
2017-01-27T01:02:34.555Z,-3.04
2017-01-27T01:03:39.752Z,-3.05
2017-01-27T01:04:44.946Z,-3.08
2017-01-27T01:05:51.104Z,-3.11
2017-01-27T01:06:57.261Z,-3.08
2017-01-27T01:08:02.455Z,-2.97
2017-01-27T01:09:07.654Z,-2.97
2017-01-27T01:10:13.812Z,-2.97
2017-01-27T01:11:19.010Z,-2.87
2017-01-27T01:12:25.192Z,-3
2017-01-27T01:13:30.359Z,-3.02
2017-01-27T01:14:36.502Z,-3
2017-01-27T01:15:42.687Z,-3.05
2017-01-27T01:16:48.844Z,-3.1
2017-01-27T01:17:55.004Z,-3.11
2017-01-27T01:18:59.259Z,-3.04
2017-01-27T01:20:05.414Z,-2.94
2017-01-27T01:21:11.573Z,-2.96
2017-01-27T01:22:15.811Z,-3.04
2017-01-27T01:23:20.093Z,-3.1
2017-01-27T01:24:26.221Z,-3.11
2017-01-27T01:25:31.412Z,-3.14
2017-01-27T01:26:36.603Z,-3.11
2017-01-27T01:27:42.787Z,-3.07
2017-01-27T01:28:48.962Z,-3.02
2017-01-27T01:29:55.107Z,-3.02
2017-01-27T01:31:00.279Z,-3.02
2017-01-27T01:32:04.474Z,-3.02
2017-01-27T01:33:09.639Z,-3
2017-01-27T01:34:13.962Z,-2.93
2017-01-27T01:35:19.153Z,-2.94
2017-01-27T01:36:22.403Z,-2.9
2017-01-27T01:37:28.558Z,-2.97
2017-01-27T01:38:34.725Z,-2.99
2017-01-27T01:39:38.988Z,-2.9
2017-01-27T01:40:44.175Z,-2.9
2017-01-27T01:41:49.356Z,-2.89
2017-01-27T01:42:53.576Z,-2.9
2017-01-27T01:43:59.731Z,-2.94
2017-01-27T01:45:04.914Z,-2.94
2017-01-27T01:46:10.133Z,-2.96
2017-01-27T01:47:15.280Z,-2.99
2017-01-27T01:48:21.528Z,-2.97
2017-01-27T01:49:27.703Z,-2.86
2017-01-27T01:50:32.929Z,-2.9
2017-01-27T01:51:39.062Z,-2.92
2017-01-27T01:52:44.258Z,-2.87
2017-01-27T01:53:50.456Z,-2.9
2017-01-27T01:54:54.680Z,-2.86
2017-01-27T01:56:00.806Z,-2.89
2017-01-27T01:57:06.969Z,-2.86
2017-01-27T01:58:12.165Z,-2.81
2017-01-27T01:59:15.391Z,-2.71
2017-01-27T02:00:21.663Z,-2.89
2017-01-27T02:01:26.867Z,-2.9
2017-01-27T02:02:31.091Z,-2.9
2017-01-27T02:03:35.314Z,-2.92
2017-01-27T02:04:39.506Z,-2.75
2017-01-27T02:05:45.664Z,-2.89
2017-01-27T02:06:50.877Z,-2.85
2017-01-27T02:07:57.036Z,-2.81
2017-01-27T02:09:02.238Z,-2.85
2017-01-27T02:10:08.422Z,-2.87
2017-01-27T02:11:14.589Z,-2.87
2017-01-27T02:12:19.786Z,-2.82
2017-01-27T02:13:24.993Z,-2.76
2017-01-27T02:14:30.192Z,-2.72
2017-01-27T02:15:34.432Z,-2.74
2017-01-27T02:16:38.673Z,-2.75
2017-01-27T02:17:43.844Z,-2.69
2017-01-27T02:18:49.012Z,-2.71
2017-01-27T02:19:55.167Z,-2.66
2017-01-27T02:21:00.368Z,-2.75
2017-01-27T02:22:05.567Z,-2.63
2017-01-27T02:23:11.729Z,-2.66
2017-01-27T02:24:17.891Z,-2.64
2017-01-27T02:25:24.087Z,-2.78
2017-01-27T02:26:29.273Z,-2.69
2017-01-27T02:27:34.465Z,-2.66
2017-01-27T02:28:40.681Z,-2.76
2017-01-27T02:29:45.846Z,-2.79
2017-01-27T02:30:52.014Z,-2.72
2017-01-27T02:31:58.204Z,-2.69
2017-01-27T02:33:03.375Z,-2.86
2017-01-27T02:34:07.605Z,-2.74
2017-01-27T02:35:13.764Z,-2.79
2017-01-27T02:36:19.957Z,-2.81
2017-01-27T02:37:24.169Z,-2.74
2017-01-27T02:38:30.327Z,-2.71
2017-01-27T02:39:36.483Z,-2.79
2017-01-27T02:40:42.657Z,-2.79
2017-01-27T02:41:48.812Z,-2.71
2017-01-27T02:42:53.047Z,-2.78
2017-01-27T02:43:59.204Z,-2.85
2017-01-27T02:45:04.511Z,-2.85
2017-01-27T02:46:08.701Z,-2.81
2017-01-27T02:47:14.863Z,-2.87
2017-01-27T02:48:20.035Z,-2.82
2017-01-27T02:49:24.315Z,-2.81
2017-01-27T02:50:27.656Z,-2.89
2017-01-27T02:51:33.807Z,-2.9
2017-01-27T02:52:38.966Z,-2.79
2017-01-27T02:53:43.197Z,-2.79
2017-01-27T02:54:49.354Z,-2.87
2017-01-27T02:55:53.583Z,-2.79
2017-01-27T02:56:58.795Z,-2.85
2017-01-27T02:58:04.952Z,-2.92
2017-01-27T02:59:11.123Z,-2.85
2017-01-27T03:00:16.287Z,-2.86
2017-01-27T03:01:21.478Z,-2.79
2017-01-27T03:02:26.647Z,-2.75
2017-01-27T03:03:32.821Z,-2.68
2017-01-27T03:04:38.983Z,-2.71
2017-01-27T03:05:43.205Z,-2.79
2017-01-27T03:06:48.404Z,-2.81
2017-01-27T03:07:54.566Z,-2.75
2017-01-27T03:08:59.731Z,-2.71
2017-01-27T03:10:04.921Z,-2.74
2017-01-27T03:11:09.155Z,-2.76
2017-01-27T03:12:15.316Z,-2.72
2017-01-27T03:13:20.594Z,-2.86
2017-01-27T03:14:25.795Z,-2.75
2017-01-27T03:15:31.988Z,-2.79
2017-01-27T03:16:37.177Z,-2.79
2017-01-27T03:17:43.329Z,-2.81
2017-01-27T03:18:48.522Z,-2.79
2017-01-27T03:19:51.806Z,-2.72
2017-01-27T03:20:54.076Z,-2.79
2017-01-27T03:22:00.311Z,-2.79
2017-01-27T03:23:04.710Z,-2.82
2017-01-27T03:24:10.864Z,-2.92
2017-01-27T03:25:17.028Z,-2.86
2017-01-27T03:26:23.189Z,-2.99
2017-01-27T03:27:28.387Z,-2.97
2017-01-27T03:28:33.573Z,-3
2017-01-27T03:29:37.768Z,-3.02
2017-01-27T03:30:42.029Z,-3.07
2017-01-27T03:31:48.192Z,-3.02
2017-01-27T03:32:53.385Z,-3.04
2017-01-27T03:33:59.645Z,-3.07
2017-01-27T03:35:04.871Z,-2.92
2017-01-27T03:36:10.024Z,-2.97
2017-01-27T03:37:14.258Z,-2.94
2017-01-27T03:38:20.415Z,-2.93
2017-01-27T03:39:24.746Z,-3.08
2017-01-27T03:40:30.904Z,-2.9
2017-01-27T03:41:35.191Z,-3.07
2017-01-27T03:42:40.336Z,-3.05
2017-01-27T03:43:45.638Z,-3.05
2017-01-27T03:44:51.774Z,-3.04
2017-01-27T03:45:57.932Z,-3.1
2017-01-27T03:47:04.094Z,-3.11
2017-01-27T03:48:10.410Z,-3.14
2017-01-27T03:49:15.604Z,-3.2
2017-01-27T03:50:19.893Z,-3.14
2017-01-27T03:51:25.085Z,-3.04
2017-01-27T03:52:29.287Z,-3.11
2017-01-27T03:53:35.453Z,-3.1
2017-01-27T03:54:41.613Z,-3.1
2017-01-27T03:55:46.881Z,-3.2
2017-01-27T03:56:51.123Z,-3.17
2017-01-27T03:57:56.345Z,-3.13
2017-01-27T03:59:01.532Z,-3.05
2017-01-27T04:00:06.767Z,-3.02
2017-01-27T04:01:12.003Z,-3.08
2017-01-27T04:02:18.183Z,-3.11
2017-01-27T04:03:23.292Z,-3.08
2017-01-27T04:04:28.476Z,-3.05
2017-01-27T04:05:34.635Z,-3.1
2017-01-27T04:06:40.807Z,-2.99
2017-01-27T04:07:46.973Z,-2.99
2017-01-27T04:08:53.147Z,-2.97
2017-01-27T04:09:59.303Z,-2.97
2017-01-27T04:11:02.541Z,-2.96
2017-01-27T04:12:07.763Z,-2.92
2017-01-27T04:13:11.993Z,-2.89
2017-01-27T04:14:17.228Z,-2.93
2017-01-27T04:15:23.388Z,-2.85
2017-01-27T04:16:27.622Z,-2.85
2017-01-27T04:17:32.824Z,-2.99
2017-01-27T04:18:37.017Z,-2.99
2017-01-27T04:19:42.224Z,-2.97
2017-01-27T04:20:47.413Z,-2.97
2017-01-27T04:21:51.632Z,-2.89
2017-01-27T04:22:57.825Z,-2.89
2017-01-27T04:24:03.026Z,-2.86
2017-01-27T04:25:09.148Z,-2.71
2017-01-27T04:26:15.331Z,-2.75
2017-01-27T04:27:20.574Z,-2.81
2017-01-27T04:28:26.733Z,-2.75
2017-01-27T04:29:31.897Z,-2.81
2017-01-27T04:30:38.053Z,-2.9
2017-01-27T04:31:43.236Z,-2.92
2017-01-27T04:32:49.437Z,-2.92
2017-01-27T04:33:54.675Z,-2.86
2017-01-27T04:34:59.840Z,-2.9
2017-01-27T04:36:05.036Z,-2.94
2017-01-27T04:37:11.195Z,-2.94
2017-01-27T04:38:17.379Z,-3.02
2017-01-27T04:39:23.571Z,-2.97
2017-01-27T04:40:29.760Z,-3
2017-01-27T04:41:34.962Z,-3.02
2017-01-27T04:42:40.128Z,-3.02
2017-01-27T04:43:44.396Z,-3.05
2017-01-27T04:44:49.565Z,-3.07
2017-01-27T04:45:55.727Z,-3.02
2017-01-27T04:47:00.914Z,-3.08
2017-01-27T04:48:05.119Z,-3.05
2017-01-27T04:49:11.282Z,-3.07
2017-01-27T04:50:16.478Z,-3.05
2017-01-27T04:51:21.684Z,-3.13
2017-01-27T04:52:26.887Z,-3.08
2017-01-27T04:53:32.092Z,-3.13
2017-01-27T04:54:37.290Z,-3.11
2017-01-27T04:55:40.524Z,-3.15
2017-01-27T04:56:45.778Z,-3.15
2017-01-27T04:57:51.934Z,-3.17
2017-01-27T04:58:57.185Z,-3.07
2017-01-27T05:00:02.386Z,-3.15
2017-01-27T05:01:07.618Z,-3.15
2017-01-27T05:02:12.778Z,-3.07
2017-01-27T05:03:17.971Z,-3.14
2017-01-27T05:04:24.151Z,-3.11
2017-01-27T05:05:29.386Z,-3.15
2017-01-27T05:06:34.540Z,-3.25
2017-01-27T05:07:40.699Z,-3.11
2017-01-27T05:08:45.896Z,-3.17
2017-01-27T05:09:52.069Z,-3.1
2017-01-27T05:10:58.230Z,-3.17
2017-01-27T05:12:03.416Z,-3.2
2017-01-27T05:13:09.616Z,-3.11
2017-01-27T05:14:14.805Z,-3.11
2017-01-27T05:15:20.960Z,-3.11
2017-01-27T05:16:26.161Z,-3.13
2017-01-27T05:17:30.436Z,-3.1
2017-01-27T05:18:35.560Z,-3.13
2017-01-27T05:19:41.716Z,-3.14
2017-01-27T05:20:46.912Z,-3.1
2017-01-27T05:21:53.075Z,-3.1
2017-01-27T05:22:58.247Z,-3.02
2017-01-27T05:24:02.450Z,-3.11
2017-01-27T05:25:08.609Z,-3.1
2017-01-27T05:26:13.805Z,-3.14
2017-01-27T05:27:18.034Z,-3.18
2017-01-27T05:28:24.200Z,-3.17
2017-01-27T05:29:30.371Z,-3.26
2017-01-27T05:30:34.586Z,-3.28
2017-01-27T05:31:39.780Z,-3.31
2017-01-27T05:32:45.949Z,-3.36
2017-01-27T05:33:51.138Z,-3.28
2017-01-27T05:34:57.403Z,-3.18
2017-01-27T05:36:03.514Z,-3.13
2017-01-27T05:37:08.716Z,-3.04
2017-01-27T05:38:14.869Z,-3.05
2017-01-27T05:39:21.030Z,-3.07
2017-01-27T05:40:27.190Z,-3.1
2017-01-27T05:41:31.389Z,-3.08
2017-01-27T05:42:36.580Z,-3.05
2017-01-27T05:43:41.779Z,-3.14
2017-01-27T05:44:47.925Z,-3.17
2017-01-27T05:45:54.150Z,-3.11
2017-01-27T05:47:00.272Z,-3.15
2017-01-27T05:48:04.556Z,-3.15
2017-01-27T05:49:08.743Z,-3.07
2017-01-27T05:50:13.935Z,-3.04
2017-01-27T05:51:20.097Z,-3
2017-01-27T05:52:26.337Z,-3.07
2017-01-27T05:53:31.564Z,-3.08
2017-01-27T05:54:37.699Z,-3.07
2017-01-27T05:55:43.868Z,-3.1
2017-01-27T05:56:50.025Z,-3.1
2017-01-27T05:57:55.226Z,-3.13
2017-01-27T05:59:00.425Z,-3.1
2017-01-27T06:00:05.616Z,-3.08
2017-01-27T06:01:11.781Z,-3.17
2017-01-27T06:02:18.076Z,-3.02
2017-01-27T06:03:21.320Z,-3.1
2017-01-27T06:04:27.519Z,-3.11
2017-01-27T06:05:31.748Z,-3.14
2017-01-27T06:06:37.910Z,-3.08
2017-01-27T06:07:44.076Z,-3.15
2017-01-27T06:08:49.286Z,-3.14
2017-01-27T06:09:54.479Z,-3.13
2017-01-27T06:10:59.673Z,-3.17
2017-01-27T06:12:04.867Z,-3.04
2017-01-27T06:13:11.037Z,-3.05
2017-01-27T06:14:17.205Z,-3.05
2017-01-27T06:15:23.345Z,-3.08
2017-01-27T06:16:28.550Z,-3.14
2017-01-27T06:17:34.750Z,-3.11
2017-01-27T06:18:39.912Z,-3.11
2017-01-27T06:19:45.150Z,-2.92
2017-01-27T06:20:51.299Z,-3.02
2017-01-27T06:21:57.439Z,-3
2017-01-27T06:23:02.645Z,-3.02
2017-01-27T06:24:08.813Z,-3
2017-01-27T06:25:13.992Z,-2.96
2017-01-27T06:26:20.152Z,-3.02
2017-01-27T06:27:26.314Z,-3.02
2017-01-27T06:28:32.488Z,-2.99
2017-01-27T06:29:38.650Z,-3.08
2017-01-27T06:30:44.819Z,-3.05
2017-01-27T06:31:50.008Z,-2.99
2017-01-27T06:32:54.238Z,-2.92
2017-01-27T06:33:59.431Z,-2.86
2017-01-27T06:35:04.602Z,-2.93
2017-01-27T06:36:09.795Z,-2.94
2017-01-27T06:37:15.947Z,-2.85
2017-01-27T06:38:22.111Z,-2.92
2017-01-27T06:39:26.307Z,-2.85
2017-01-27T06:40:32.473Z,-2.85
2017-01-27T06:41:36.710Z,-2.92
2017-01-27T06:42:42.873Z,-2.89
2017-01-27T06:43:49.196Z,-2.76
2017-01-27T06:44:53.429Z,-2.78
2017-01-27T06:45:57.770Z,-2.92
2017-01-27T06:47:03.910Z,-2.78
2017-01-27T06:48:08.136Z,-2.89
2017-01-27T06:49:14.297Z,-2.79
2017-01-27T06:50:19.478Z,-2.81
2017-01-27T06:51:24.678Z,-2.78
2017-01-27T06:52:29.924Z,-2.87
2017-01-27T06:53:35.120Z,-2.82
2017-01-27T06:54:41.293Z,-2.87
2017-01-27T06:55:47.468Z,-2.89
2017-01-27T06:56:53.626Z,-2.76
2017-01-27T06:57:59.791Z,-2.72
2017-01-27T06:59:05.962Z,-2.76
2017-01-27T07:00:12.120Z,-2.69
2017-01-27T07:01:18.278Z,-2.66
2017-01-27T07:02:24.454Z,-2.64
2017-01-27T07:03:29.656Z,-2.66
2017-01-27T07:04:34.896Z,-2.66
2017-01-27T07:05:40.095Z,-2.74
2017-01-27T07:06:45.275Z,-2.66
2017-01-27T07:07:50.474Z,-2.68
2017-01-27T07:08:56.653Z,-2.69
2017-01-27T07:10:00.879Z,-2.6
2017-01-27T07:12:12.275Z,-2.5
2017-01-27T07:13:16.568Z,-2.56
2017-01-27T07:14:21.730Z,-2.58
2017-01-27T07:15:26.973Z,-2.56
2017-01-27T07:16:32.164Z,-2.5
2017-01-27T07:17:38.391Z,-2.6
2017-01-27T07:18:43.547Z,-2.53
2017-01-27T07:19:49.714Z,-2.42
2017-01-27T07:20:55.874Z,-2.48
2017-01-27T07:22:02.093Z,-2.45
2017-01-27T07:23:07.286Z,-2.38
2017-01-27T07:24:12.570Z,-2.35
2017-01-27T07:25:17.747Z,-2.4
2017-01-27T07:26:21.985Z,-2.33
2017-01-27T07:27:28.162Z,-2.33
2017-01-27T07:28:33.347Z,-2.35
2017-01-27T07:29:38.537Z,-2.23
2017-01-27T07:30:43.725Z,-2.23
2017-01-27T07:31:49.902Z,-2.21
2017-01-27T07:32:55.127Z,-2.17
2017-01-27T07:34:00.421Z,-2.17
2017-01-27T07:35:06.620Z,-2.17
2017-01-27T07:36:10.816Z,-2.06
2017-01-27T07:37:15.039Z,-2.13
2017-01-27T07:38:21.198Z,-2.1
2017-01-27T07:39:27.370Z,-1.96
2017-01-27T07:40:33.529Z,-1.99
2017-01-27T07:41:38.727Z,-1.9
2017-01-27T07:42:43.934Z,-1.9
2017-01-27T07:43:49.247Z,-1.84
2017-01-27T07:44:55.417Z,-1.75
2017-01-27T07:46:00.612Z,-1.8
2017-01-27T07:47:05.853Z,-1.69
2017-01-27T07:48:11.165Z,-1.64
2017-01-27T07:49:16.362Z,-1.49
2017-01-27T07:50:22.531Z,-1.51
2017-01-27T07:51:27.703Z,-1.42
2017-01-27T07:52:31.929Z,-1.41
2017-01-27T07:53:36.157Z,-1.51
2017-01-27T07:54:42.321Z,-1.33
2017-01-27T07:55:47.517Z,-1.21
2017-01-27T07:56:53.674Z,-1.24
2017-01-27T07:57:57.939Z,-1.13
2017-01-27T07:59:04.066Z,-1.06
2017-01-27T08:00:09.256Z,-0.95
2017-01-27T08:01:14.481Z,-0.94
2017-01-27T08:02:18.704Z,-0.87
2017-01-27T08:03:23.903Z,-0.8
2017-01-27T08:04:28.143Z,-0.66
2017-01-27T08:05:33.352Z,-0.62
2017-01-27T08:06:38.561Z,-0.51
2017-01-27T08:07:44.726Z,-0.37
2017-01-27T08:08:49.900Z,-0.33
2017-01-27T08:09:55.141Z,-0.13
2017-01-27T08:11:01.335Z,-0.06
2017-01-27T08:12:06.449Z,0.25
2017-01-27T08:13:11.641Z,0.38
2017-01-27T08:14:17.815Z,0.57
2017-01-27T08:15:22.015Z,0.72
2017-01-27T08:16:28.185Z,0.82
2017-01-27T08:17:33.380Z,0.82
2017-01-27T08:18:38.585Z,0.9
2017-01-27T08:19:44.746Z,0.89
2017-01-27T08:20:50.921Z,1
2017-01-27T08:21:57.085Z,1.01
2017-01-27T08:23:02.295Z,1.12
2017-01-27T08:24:08.467Z,1.25
2017-01-27T08:25:14.627Z,1.28
2017-01-27T08:26:19.850Z,1.28
2017-01-27T08:27:25.047Z,1.24
2017-01-27T08:28:30.252Z,1.33
2017-01-27T08:29:35.469Z,1.36
2017-01-27T08:30:40.631Z,1.46
2017-01-27T08:31:46.793Z,1.4
2017-01-27T08:32:50.998Z,1.47
2017-01-27T08:33:57.152Z,1.44
2017-01-27T08:35:03.350Z,1.42
2017-01-27T08:36:08.550Z,1.42
2017-01-27T08:37:12.766Z,1.44
2017-01-27T08:38:18.933Z,1.34
2017-01-27T08:39:24.136Z,1.34
2017-01-27T08:40:29.337Z,1.43
2017-01-27T08:41:35.498Z,1.52
2017-01-27T08:42:41.673Z,1.58
2017-01-27T08:43:46.892Z,1.72
2017-01-27T08:44:52.132Z,1.6
2017-01-27T08:45:58.283Z,1.61
2017-01-27T08:47:02.513Z,1.85
2017-01-27T08:48:08.812Z,2.04
2017-01-27T08:49:14.015Z,2.04
2017-01-27T08:50:18.294Z,2.19
2017-01-27T08:51:24.431Z,2.22
2017-01-27T08:52:28.658Z,2.26
2017-01-27T08:53:33.867Z,2.26
2017-01-27T08:54:40.031Z,2.28
2017-01-27T08:55:46.194Z,2.2
2017-01-27T08:56:51.394Z,2.22
2017-01-27T08:57:56.594Z,2.15
2017-01-27T08:59:02.762Z,2.19
2017-01-27T09:00:07.963Z,2.17
2017-01-27T09:01:14.128Z,2.13
2017-01-27T09:02:19.329Z,2.1
2017-01-27T09:03:24.554Z,2.06
2017-01-27T09:04:30.718Z,2.09
2017-01-27T09:05:36.886Z,2.17
2017-01-27T09:06:43.066Z,2.16
2017-01-27T09:07:49.266Z,2.17
2017-01-27T09:08:55.434Z,2.09
2017-01-27T09:10:01.612Z,2.15
2017-01-27T09:11:07.805Z,2.26
2017-01-27T09:12:13.013Z,2.58
2017-01-27T09:13:18.209Z,2.48
2017-01-27T09:14:22.448Z,2.64
2017-01-27T09:15:27.669Z,2.69
2017-01-27T09:16:32.840Z,2.84
2017-01-27T09:17:39.012Z,2.91
2017-01-27T09:18:44.265Z,2.89
2017-01-27T09:19:50.486Z,2.92
2017-01-27T09:20:53.725Z,2.87
2017-01-27T09:21:59.028Z,2.88
2017-01-27T09:23:03.234Z,2.97
2017-01-27T09:24:09.399Z,3.05
2017-01-27T09:25:14.599Z,3.13
2017-01-27T09:26:19.800Z,3.21
2017-01-27T09:27:24.999Z,3.16
2017-01-27T09:28:31.218Z,3.21
2017-01-27T09:29:35.437Z,3.33
2017-01-27T09:30:40.664Z,3.43
2017-01-27T09:31:46.833Z,3.64
2017-01-27T09:32:52.014Z,3.54
2017-01-27T09:33:58.183Z,3.5
2017-01-27T09:35:04.365Z,3.7
2017-01-27T09:36:09.570Z,3.58
2017-01-27T09:37:15.733Z,3.54
2017-01-27T09:38:19.947Z,3.39
2017-01-27T09:39:23.228Z,3.36
2017-01-27T09:40:27.456Z,3.28
2017-01-27T09:41:33.661Z,3.28
2017-01-27T09:42:38.874Z,3.2
2017-01-27T09:43:43.110Z,3.1
2017-01-27T09:44:49.247Z,3.1
2017-01-27T09:45:53.454Z,3.16
2017-01-27T09:46:58.661Z,3.27
2017-01-27T09:48:03.861Z,3.24
2017-01-27T09:49:10.032Z,3.3
2017-01-27T09:50:16.271Z,3.33
2017-01-27T09:51:21.463Z,3.3
2017-01-27T09:52:26.669Z,3.39
2017-01-27T09:53:31.861Z,3.4
2017-01-27T09:54:38.028Z,3.4
2017-01-27T09:55:43.246Z,3.42
2017-01-27T09:56:48.463Z,3.39
2017-01-27T09:57:53.657Z,3.58
2017-01-27T09:58:59.823Z,3.57
2017-01-27T10:00:06.021Z,3.7
2017-01-27T10:01:11.191Z,3.75
2017-01-27T10:02:16.396Z,3.82
2017-01-27T10:03:20.629Z,3.78
2017-01-27T10:04:26.799Z,3.96
2017-01-27T10:05:30.150Z,4.03
2017-01-27T10:06:35.359Z,3.98
2017-01-27T10:07:38.682Z,4.07
2017-01-27T10:08:43.857Z,4.15
2017-01-27T10:09:50.027Z,4.15
2017-01-27T10:10:55.228Z,4.22
2017-01-27T10:12:01.393Z,4.28
2017-01-27T10:13:07.609Z,4.43
2017-01-27T10:14:13.896Z,4.52
2017-01-27T10:15:19.242Z,4.52
2017-01-27T10:16:25.382Z,4.65
2017-01-27T10:17:31.561Z,4.76
2017-01-27T10:18:36.748Z,4.8
2017-01-27T10:19:41.981Z,4.8
2017-01-27T10:20:48.116Z,4.79
2017-01-27T10:21:53.345Z,4.86
2017-01-27T10:22:57.559Z,4.77
2017-01-27T10:24:03.734Z,4.94
2017-01-27T10:25:08.021Z,4.86
2017-01-27T10:26:14.195Z,4.79
2017-01-27T10:27:20.373Z,4.91
2017-01-27T10:28:26.558Z,4.72
2017-01-27T10:29:32.738Z,4.76
2017-01-27T10:30:38.891Z,4.96
2017-01-27T10:31:45.079Z,5.09
2017-01-27T10:32:49.317Z,5.1
2017-01-27T10:33:54.488Z,5.23
2017-01-27T10:34:59.699Z,5.25
2017-01-27T10:36:05.880Z,5.22
2017-01-27T10:37:11.068Z,5.14
2017-01-27T10:38:14.348Z,5.13
2017-01-27T10:39:19.553Z,4.94
2017-01-27T10:40:24.750Z,4.69
2017-01-27T10:41:29.950Z,4.7
2017-01-27T10:42:35.130Z,4.51
2017-01-27T10:43:41.305Z,4.67
2017-01-27T10:44:47.578Z,4.75
2017-01-27T10:45:50.847Z,4.86
2017-01-27T10:46:56.048Z,5.01
2017-01-27T10:48:01.230Z,5.17
2017-01-27T10:49:06.505Z,5.34
2017-01-27T10:50:10.646Z,5.6
2017-01-27T10:51:15.841Z,5.66
2017-01-27T10:52:21.077Z,5.68
2017-01-27T10:53:25.311Z,5.64
2017-01-27T10:54:30.511Z,5.68
2017-01-27T10:55:35.716Z,5.77
2017-01-27T10:56:40.924Z,5.73
2017-01-27T10:57:45.171Z,5.83
2017-01-27T10:58:50.412Z,6.03
2017-01-27T10:59:55.636Z,6.06
2017-01-27T11:01:01.818Z,6.03
2017-01-27T11:02:07.051Z,5.98
2017-01-27T11:03:12.242Z,5.98
2017-01-27T11:04:17.476Z,5.75
2017-01-27T11:05:22.669Z,5.86
2017-01-27T11:06:27.913Z,5.82
2017-01-27T11:07:34.055Z,5.83
2017-01-27T11:08:40.224Z,6.01
2017-01-27T11:09:45.421Z,5.77
2017-01-27T11:10:51.591Z,5.77
2017-01-27T11:11:56.805Z,5.71
2017-01-27T11:13:02.977Z,5.55
2017-01-27T11:14:08.156Z,5.52
2017-01-27T11:15:14.355Z,5.37
2017-01-27T11:16:19.500Z,5.25
2017-01-27T11:17:23.700Z,5.22
2017-01-27T11:18:27.921Z,5.17
2017-01-27T11:19:33.134Z,5.01
2017-01-27T11:20:39.316Z,5.1
2017-01-27T11:21:45.513Z,5.16
2017-01-27T11:22:51.686Z,5.17
2017-01-27T11:23:57.922Z,5.07
2017-01-27T11:25:04.062Z,5.05
2017-01-27T11:26:08.300Z,5.14
2017-01-27T11:27:14.468Z,5.14
2017-01-27T11:28:20.653Z,5.19
2017-01-27T11:29:25.850Z,5.14
2017-01-27T11:30:31.062Z,5.2
2017-01-27T11:31:35.291Z,5.25
2017-01-27T11:32:41.455Z,5.32
2017-01-27T11:33:45.695Z,5.37
2017-01-27T11:34:51.859Z,5.37
2017-01-27T11:35:57.072Z,5.48
2017-01-27T11:37:02.263Z,5.32
2017-01-27T11:38:06.479Z,5.41
2017-01-27T11:39:11.765Z,5.45
2017-01-27T11:40:17.924Z,5.5
2017-01-27T11:41:24.108Z,5.46
2017-01-27T11:42:28.353Z,5.46
2017-01-27T11:43:34.528Z,5.41
2017-01-27T11:44:39.728Z,5.45
2017-01-27T11:45:44.919Z,5.5
2017-01-27T11:46:51.099Z,5.49
2017-01-27T11:47:55.388Z,5.49
2017-01-27T11:49:01.567Z,5.53
2017-01-27T11:50:05.784Z,5.52
2017-01-27T11:51:10.986Z,5.48
2017-01-27T11:52:16.190Z,5.55
2017-01-27T11:53:21.388Z,5.57
2017-01-27T11:54:26.594Z,5.6
2017-01-27T11:55:31.793Z,5.67
2017-01-27T11:56:37.962Z,5.74
2017-01-27T11:57:43.197Z,5.74
2017-01-27T11:58:49.329Z,5.77
2017-01-27T11:59:55.503Z,5.71
2017-01-27T12:01:01.725Z,5.77
2017-01-27T12:02:07.894Z,5.82
2017-01-27T12:03:13.107Z,5.82
2017-01-27T12:04:18.275Z,5.78
2017-01-27T12:05:24.442Z,5.81
2017-01-27T12:06:28.686Z,5.75
2017-01-27T12:07:34.868Z,5.81
2017-01-27T12:08:41.070Z,5.83
2017-01-27T12:09:47.215Z,5.93
2017-01-27T12:10:53.394Z,5.96
2017-01-27T12:11:59.572Z,6.06
2017-01-27T12:13:04.783Z,6.04
2017-01-27T12:14:09.976Z,6.14
2017-01-27T12:15:16.161Z,6.25
2017-01-27T12:16:22.337Z,6.3
2017-01-27T12:17:27.545Z,6.26
2017-01-27T12:18:32.779Z,6.25
2017-01-27T12:19:37.952Z,6.28
2017-01-27T12:20:44.110Z,6.38
2017-01-27T12:21:49.315Z,6.38
2017-01-27T12:22:54.511Z,6.41
2017-01-27T12:23:59.714Z,6.43
2017-01-27T12:25:04.881Z,6.58
2017-01-27T12:26:10.095Z,6.48
2017-01-27T12:27:16.255Z,6.51
2017-01-27T12:28:22.428Z,6.54
2017-01-27T12:29:27.694Z,6.47
2017-01-27T12:30:32.898Z,6.47
2017-01-27T12:31:37.128Z,6.46
2017-01-27T12:32:42.328Z,6.46
2017-01-27T12:33:47.531Z,6.47
2017-01-27T12:34:53.706Z,6.48
2017-01-27T12:35:59.930Z,6.5
2017-01-27T12:37:05.214Z,6.56
2017-01-27T12:38:08.450Z,6.46
2017-01-27T12:39:14.720Z,6.46
2017-01-27T12:40:19.960Z,6.54
2017-01-27T12:41:25.117Z,6.44
2017-01-27T12:42:30.358Z,6.56
2017-01-27T12:43:36.602Z,6.54
2017-01-27T12:44:40.814Z,6.72
2017-01-27T12:45:46.990Z,6.62
2017-01-27T12:46:53.165Z,6.77
2017-01-27T12:47:59.355Z,6.76
2017-01-27T12:49:03.592Z,6.76
2017-01-27T12:50:08.795Z,6.83
2017-01-27T12:51:13.041Z,6.8
2017-01-27T12:52:19.207Z,6.72
2017-01-27T12:53:25.372Z,6.81
2017-01-27T12:54:31.557Z,6.84
2017-01-27T12:55:37.733Z,6.83
2017-01-27T12:56:42.927Z,6.89
2017-01-27T12:57:49.099Z,6.89
2017-01-27T12:58:54.301Z,6.83
2017-01-27T12:59:59.503Z,6.84
2017-01-27T13:01:04.704Z,6.83
2017-01-27T13:02:09.910Z,6.84
2017-01-27T13:03:15.097Z,6.83
2017-01-27T13:04:21.262Z,6.86
2017-01-27T13:05:26.493Z,6.81
2017-01-27T13:06:31.655Z,6.91
2017-01-27T13:07:37.833Z,6.86
2017-01-27T13:08:43.036Z,6.84
2017-01-27T13:09:49.208Z,6.84
2017-01-27T13:10:55.373Z,6.87
2017-01-27T13:12:00.590Z,6.83
2017-01-27T13:13:03.827Z,6.86
2017-01-27T13:14:09.031Z,6.72
2017-01-27T13:15:14.254Z,6.8
2017-01-27T13:16:19.454Z,6.73
2017-01-27T13:17:25.667Z,6.68
2017-01-27T13:18:31.804Z,6.73
2017-01-27T13:19:37.975Z,6.87
2017-01-27T13:20:44.185Z,6.79
2017-01-27T13:21:49.403Z,6.79
2017-01-27T13:22:53.634Z,6.73
2017-01-27T13:23:57.885Z,6.83
2017-01-27T13:25:04.066Z,6.76
2017-01-27T13:26:09.241Z,6.73
2017-01-27T13:27:15.436Z,6.66
2017-01-27T13:28:21.604Z,6.71
2017-01-27T13:29:27.809Z,6.63
2017-01-27T13:30:33.134Z,6.69
2017-01-27T13:31:39.325Z,6.65
2017-01-27T13:32:44.526Z,6.66
2017-01-27T13:33:49.722Z,6.59
2017-01-27T13:34:54.967Z,6.61
2017-01-27T13:36:00.137Z,6.56
2017-01-27T13:37:05.333Z,6.68
2017-01-27T13:38:10.520Z,6.59
2017-01-27T13:39:16.733Z,6.59
2017-01-27T13:40:21.939Z,6.66
2017-01-27T13:41:28.108Z,6.63
2017-01-27T13:42:34.299Z,6.72
2017-01-27T13:43:40.475Z,6.62
2017-01-27T13:44:45.720Z,6.63
2017-01-27T13:45:51.889Z,6.65
2017-01-27T13:46:57.099Z,6.63
2017-01-27T13:48:03.317Z,6.69
2017-01-27T13:49:09.500Z,6.71
2017-01-27T13:50:15.669Z,6.66
2017-01-27T13:51:21.904Z,6.63
2017-01-27T13:52:28.082Z,6.71
2017-01-27T13:53:32.313Z,6.68
2017-01-27T13:54:38.488Z,6.76
2017-01-27T13:55:44.716Z,6.76
2017-01-27T13:56:50.920Z,6.77
2017-01-27T13:57:57.056Z,6.68
2017-01-27T13:59:01.307Z,6.72
2017-01-27T14:00:07.464Z,6.79
2017-01-27T14:01:13.644Z,6.8
2017-01-27T14:02:18.978Z,6.72
2017-01-27T14:03:25.162Z,6.77
2017-01-27T14:04:30.322Z,6.79
2017-01-27T14:05:35.614Z,6.79
2017-01-27T14:06:41.787Z,6.87
2017-01-27T14:07:47.953Z,6.89
2017-01-27T14:08:53.158Z,6.89
2017-01-27T14:09:59.431Z,6.81
2017-01-27T14:11:05.605Z,6.84
2017-01-27T14:12:10.836Z,6.91
2017-01-27T14:13:15.035Z,6.9
2017-01-27T14:14:21.215Z,6.98
2017-01-27T14:15:26.396Z,6.95
2017-01-27T14:16:31.609Z,6.95
2017-01-27T14:17:34.811Z,6.99
2017-01-27T14:18:39.018Z,7.07
2017-01-27T14:19:45.200Z,7.07